Time;durP1;ratioP1;P1;durP2;ratioP2;P2;SDS_P1;SDS_P2;PMS_P1;PMS_P2;Temp;Humidity;BMP_temperature;BMP_pressure;BME280_temperature;BME280_humidity;BME280_pressure;Samples;Min_cycle;Max_cycle;Signal;HPM_P1;HPM_P2
2021/11/16 00:03:44;;;;;;;59.20;35.60;;;;;;;8.24;67.41;100179.06;211641;1331;139838;-59
2021/11/16 00:08:47;;;;;;;58.10;34.70;;;;;;;8.26;67.25;100171.77;211845;1328;140621;-55
2021/11/16 00:13:50;;;;;;;59.30;36.20;;;;;;;8.27;67.30;100173.14;211852;1331;139868;-60
2021/11/16 00:18:58;;;;;;;61.20;33.80;;;;;;;8.27;67.23;100175.27;211902;1328;143167;-62
2021/11/16 00:24:08;;;;;;;56.50;33.70;;;;;;;8.20;67.08;100169.66;211866;1328;139492;-60
2021/11/16 00:29:12;;;;;;;62.30;35.10;;;;;;;8.10;67.03;100167.89;211809;1331;139086;-59
2021/11/16 00:34:15;;;;;;;60.20;35.00;;;;;;;8.11;67.36;100158.86;212305;1328;139428;-60
2021/11/16 00:39:19;;;;;;;62.40;35.50;;;;;;;8.12;67.33;100157.58;212306;1325;139387;-59
2021/11/16 00:44:22;;;;;;;54.90;31.60;;;;;;;8.09;67.36;100163.52;211879;1329;140227;-62
2021/11/16 00:49:25;;;;;;;53.00;31.90;;;;;;;8.03;67.13;100162.46;211796;1331;139446;-59
2021/11/16 00:54:28;;;;;;;55.60;32.70;;;;;;;8.04;67.47;100167.02;211715;1330;139822;-62
2021/11/16 00:59:32;;;;;;;51.70;31.10;;;;;;;8.08;67.42;100175.90;212580;1328;139423;-62
2021/11/16 01:04:35;;;;;;;56.60;33.10;;;;;;;8.04;67.28;100177.27;212387;1324;139428;-57
2021/11/16 01:09:38;;;;;;;74.90;43.00;;;;;;;8.05;67.46;100183.09;212203;1330;139494;-61
2021/11/16 01:14:42;;;;;;;58.50;33.20;;;;;;;8.12;67.71;100187.42;211691;1332;139016;-58
2021/11/16 01:19:48;;;;;;;58.70;32.50;;;;;;;8.14;67.54;100183.14;212595;1323;139216;-60
2021/11/16 01:24:52;;;;;;;53.70;31.60;;;;;;;8.09;67.43;100185.58;211797;1328;141615;-58
2021/11/16 01:29:55;;;;;;;57.90;34.00;;;;;;;8.04;67.37;100184.00;211992;1331;140708;-58
2021/11/16 01:34:59;;;;;;;55.50;32.50;;;;;;;8.07;67.67;100183.89;212422;1324;140714;-62
2021/11/16 01:40:10;;;;;;;54.40;32.40;;;;;;;8.07;67.56;100181.25;212030;1327;139274;-56
2021/11/16 01:45:19;;;;;;;51.00;31.60;;;;;;;8.07;67.49;100181.60;212173;1330;140640;-59
2021/11/16 01:50:23;;;;;;;49.60;31.10;;;;;;;8.13;67.68;100180.52;211753;1332;139596;-61
2021/11/16 01:55:26;;;;;;;49.90;29.70;;;;;;;8.19;67.79;100179.61;211977;1327;139278;-59
2021/11/16 02:00:34;;;;;;;51.60;30.00;;;;;;;8.22;67.57;100181.79;211856;1331;139960;-59
2021/11/16 02:05:45;;;;;;;49.10;30.60;;;;;;;8.20;67.49;100172.69;211816;1327;140557;-61
2021/11/16 02:10:53;;;;;;;50.50;29.50;;;;;;;8.17;67.44;100178.08;212264;1325;139866;-58
2021/11/16 02:15:57;;;;;;;53.50;29.90;;;;;;;8.13;67.61;100177.33;211894;1333;139747;-58
2021/11/16 02:21:00;;;;;;;55.70;31.90;;;;;;;8.12;67.56;100176.84;212274;1330;139459;-60
2021/11/16 02:26:04;;;;;;;57.20;31.90;;;;;;;8.10;67.58;100171.44;212120;1325;139339;-59
2021/11/16 02:31:07;;;;;;;53.70;30.20;;;;;;;8.05;67.39;100172.48;211752;1331;139903;-60
2021/11/16 02:36:11;;;;;;;53.60;30.50;;;;;;;8.07;67.58;100175.93;211812;1331;140152;-58
2021/11/16 02:41:15;;;;;;;54.10;30.00;;;;;;;8.07;67.43;100172.94;212438;1330;140183;-60
2021/11/16 02:46:18;;;;;;;49.80;30.70;;;;;;;8.02;67.51;100172.55;211785;1331;140437;-59
2021/11/16 02:51:21;;;;;;;51.40;30.90;;;;;;;8.00;67.37;100174.95;211890;1331;139897;-59
2021/11/16 02:56:25;;;;;;;52.40;31.70;;;;;;;7.98;67.55;100167.39;212229;1325;139042;-59
2021/11/16 03:01:29;;;;;;;52.70;31.00;;;;;;;7.97;67.52;100168.83;212009;1326;139906;-59
2021/11/16 03:06:33;;;;;;;44.00;26.70;;;;;;;7.95;67.41;100163.63;211767;1331;140023;-58
2021/11/16 03:11:36;;;;;;;44.90;28.50;;;;;;;7.83;67.20;100156.23;211873;1329;155686;-59
2021/11/16 03:16:39;;;;;;;43.20;27.50;;;;;;;7.75;67.58;100153.13;213112;1326;139885;-60
2021/11/16 03:21:44;;;;;;;47.40;29.90;;;;;;;7.80;67.64;100154.21;211916;1330;140703;-56
2021/11/16 03:26:48;;;;;;;46.40;29.10;;;;;;;7.92;67.80;100155.07;212362;1331;139602;-57
2021/11/16 03:32:03;;;;;;;49.90;29.80;;;;;;;7.98;67.86;100148.50;212197;1325;139559;-60
2021/11/16 03:37:07;;;;;;;50.00;30.10;;;;;;;8.01;67.72;100142.55;211950;1324;139903;-58
2021/11/16 03:42:12;;;;;;;48.50;29.60;;;;;;;8.00;67.57;100147.02;212264;1328;139894;-58
2021/11/16 03:47:17;;;;;;;46.30;29.60;;;;;;;7.96;67.50;100142.90;211824;1325;139778;-58
2021/11/16 03:52:22;;;;;;;50.10;29.60;;;;;;;7.96;67.63;100134.95;212242;1325;139712;-58
2021/11/16 03:57:26;;;;;;;52.20;29.40;;;;;;;7.96;67.62;100129.12;211936;1331;139337;-58
2021/11/16 04:02:29;;;;;;;46.70;29.40;;;;;;;7.95;67.59;100138.35;212184;1323;139907;-57
2021/11/16 04:07:33;;;;;;;47.30;29.50;;;;;;;7.96;67.52;100132.65;212022;1330;140874;-58
2021/11/16 04:12:37;;;;;;;47.90;29.10;;;;;;;8.00;67.49;100133.06;211487;1331;140642;-57
2021/11/16 04:17:41;;;;;;;52.30;31.80;;;;;;;8.02;67.71;100131.58;212315;1328;140940;-59
2021/11/16 04:22:45;;;;;;;53.10;30.00;;;;;;;8.07;67.60;100126.99;211816;1327;139576;-57
2021/11/16 04:27:49;;;;;;;51.20;31.00;;;;;;;8.07;67.70;100128.92;211784;1331;140580;-59
2021/11/16 04:32:52;;;;;;;53.30;30.30;;;;;;;8.05;67.62;100129.01;211686;1334;140076;-58
2021/11/16 04:37:58;;;;;;;243.30;157.70;;;;;;;8.03;67.60;100127.32;211457;1331;139340;-59
2021/11/16 04:43:05;;;;;;;;;;;;;;;8.11;67.84;100125.63;212726;1327;139937;-63
2021/11/16 04:48:20;;;;;;;51.50;30.10;;;;;;;8.09;67.66;100130.46;212322;1321;126174;-61
2021/11/16 04:53:51;;;;;;;67.00;41.60;;;;;;;8.05;67.68;100137.30;212175;1328;141545;-58
2021/11/16 05:04:14;;;;;;;46.70;28.60;;;;;;;8.03;67.30;100139.65;212785;1324;141855;-63
2021/11/16 05:09:17;;;;;;;42.70;28.20;;;;;;;8.00;67.36;100140.98;212215;1325;139654;-59
2021/11/16 05:14:21;;;;;;;47.60;29.00;;;;;;;7.98;67.30;100149.55;212187;1325;140666;-58
2021/11/16 05:19:24;;;;;;;142.90;91.40;;;;;;;7.95;67.65;100145.61;211824;1325;139410;-60
2021/11/16 05:24:27;;;;;;;45.80;29.30;;;;;;;7.94;67.36;100147.21;212109;1331;140255;-62
2021/11/16 05:29:30;;;;;;;43.70;27.50;;;;;;;7.80;67.47;100147.14;211779;1326;139528;-58
2021/11/16 05:34:33;;;;;;;47.10;29.70;;;;;;;7.73;67.51;100146.33;212283;1325;139312;-59
2021/11/16 05:39:36;;;;;;;46.10;29.10;;;;;;;7.69;67.62;100149.44;212059;1327;140587;-58
2021/11/16 05:44:39;;;;;;;48.80;29.20;;;;;;;7.67;67.64;100150.75;212029;1330;139827;-60
2021/11/16 05:49:42;;;;;;;44.00;27.30;;;;;;;7.71;67.95;100150.63;211899;1325;140708;-59
2021/11/16 05:54:45;;;;;;;45.90;29.10;;;;;;;7.77;67.86;100148.84;211594;1325;140105;-59
2021/11/16 05:59:48;;;;;;;53.10;30.10;;;;;;;7.83;67.95;100151.11;212014;1325;139735;-58
2021/11/16 06:04:51;;;;;;;42.50;27.80;;;;;;;7.87;67.95;100151.69;212153;1330;140269;-59
2021/11/16 06:09:55;;;;;;;42.10;26.50;;;;;;;7.88;67.93;100151.31;211977;1328;139872;-60
2021/11/16 06:14:58;;;;;;;44.80;27.60;;;;;;;7.90;67.95;100157.77;211582;1332;139592;-59
2021/11/16 06:20:01;;;;;;;45.20;27.90;;;;;;;7.92;67.83;100157.91;211949;1331;140281;-61
2021/11/16 06:25:05;;;;;;;46.60;28.40;;;;;;;7.86;67.71;100169.55;212241;1324;141167;-60
2021/11/16 06:30:09;;;;;;;44.20;27.40;;;;;;;7.81;67.89;100180.15;212348;1324;140272;-58
2021/11/16 06:35:17;;;;;;;41.10;25.50;;;;;;;7.80;67.87;100186.00;212000;1327;139854;-60
2021/11/16 06:40:21;;;;;;;44.90;27.10;;;;;;;7.83;68.11;100180.78;212172;1327;140495;-59
2021/11/16 06:45:24;;;;;;;34.90;22.30;;;;;;;7.85;67.83;100190.27;212464;1325;139813;-59
2021/11/16 06:50:30;;;;;;;37.60;22.90;;;;;;;7.85;67.82;100191.69;211694;1331;139500;-58
2021/11/16 06:55:33;;;;;;;42.40;25.30;;;;;;;7.87;68.09;100190.39;212395;1325;139156;-59
2021/11/16 07:00:36;;;;;;;45.40;25.90;;;;;;;7.91;67.97;100184.23;211781;1325;139173;-59
2021/11/16 07:05:46;;;;;;;44.70;25.90;;;;;;;7.88;68.00;100186.64;212168;1331;140157;-59
2021/11/16 07:10:49;;;;;;;48.00;28.60;;;;;;;7.83;67.84;100186.06;211959;1325;139168;-58
2021/11/16 07:15:52;;;;;;;48.90;28.40;;;;;;;7.84;67.94;100186.06;211886;1325;138914;-59
2021/11/16 07:21:00;;;;;;;53.80;28.70;;;;;;;7.87;68.00;100185.45;211805;1334;140202;-58
2021/11/16 07:26:12;;;;;;;50.40;29.60;;;;;;;7.95;68.07;100189.95;212391;1325;140175;-57
2021/11/16 07:31:17;;;;;;;44.20;25.70;;;;;;;8.00;68.30;100193.15;212381;1325;139378;-61
2021/11/16 07:36:21;;;;;;;46.60;27.50;;;;;;;7.99;68.00;100197.77;212238;1329;139927;-59
2021/11/16 07:41:24;;;;;;;50.80;28.20;;;;;;;7.96;67.90;100196.98;211977;1326;139344;-59
2021/11/16 07:46:27;;;;;;;47.90;28.40;;;;;;;7.92;67.96;100203.13;211990;1325;139979;-59
2021/11/16 07:51:30;;;;;;;45.50;25.40;;;;;;;7.90;67.85;100206.38;211929;1331;139561;-62
2021/11/16 07:56:34;;;;;;;42.50;26.20;;;;;;;7.84;67.79;100212.40;211810;1332;140576;-61
2021/11/16 08:01:45;;;;;;;47.60;27.10;;;;;;;7.78;67.88;100210.26;212144;1328;138887;-60
2021/11/16 08:12:24;;;;;;;50.90;30.50;;;;;;;7.79;68.03;100203.19;211956;1331;139576;-61
2021/11/16 08:17:28;;;;;;;52.20;29.00;;;;;;;7.84;68.08;100198.27;211891;1328;139884;-61
2021/11/16 08:22:33;;;;;;;53.70;30.10;;;;;;;7.88;68.06;100192.83;212135;1325;139778;-59
2021/11/16 08:27:40;;;;;;;50.30;29.50;;;;;;;7.93;68.03;100191.26;211623;1328;139489;-63
2021/11/16 08:32:45;;;;;;;58.00;31.10;;;;;;;7.96;68.16;100199.66;211814;1331;139843;-61
2021/11/16 08:37:49;;;;;;;56.30;32.20;;;;;;;8.01;68.35;100207.06;212069;1328;139224;-60
2021/11/16 08:43:03;;;;;;;57.10;32.90;;;;;;;8.01;67.97;100203.70;211806;1328;140414;-59
2021/11/16 08:48:12;;;;;;;58.40;31.50;;;;;;;8.03;68.31;100206.13;211790;1328;139407;-60
2021/11/16 08:53:30;;;;;;;55.30;31.50;;;;;;;8.05;68.15;100196.52;211892;1329;140111;-59
2021/11/16 08:58:33;;;;;;;60.70;33.20;;;;;;;8.14;68.35;100192.86;212108;1329;139974;-58
2021/11/16 09:03:42;;;;;;;57.20;32.90;;;;;;;8.22;68.42;100192.94;211554;1328;140414;-59
2021/11/16 09:09:00;;;;;;;66.70;35.00;;;;;;;8.22;68.00;100197.88;211956;1329;139577;-58
2021/11/16 09:14:11;;;;;;;61.40;33.60;;;;;;;8.22;68.14;100193.11;212014;1329;140354;-59
2021/11/16 09:19:29;;;;;;;55.00;31.20;;;;;;;8.21;68.01;100185.38;212206;1324;140268;-59
2021/11/16 09:24:35;;;;;;;59.60;33.40;;;;;;;8.21;68.05;100189.59;211867;1324;140408;-56
2021/11/16 09:29:40;;;;;;;63.90;35.20;;;;;;;8.25;68.35;100187.50;211643;1329;139795;-59
2021/11/16 09:34:49;;;;;;;58.70;31.40;;;;;;;8.33;68.22;100174.19;211377;1333;140219;-60
2021/11/16 09:39:56;;;;;;;57.60;32.00;;;;;;;8.38;68.08;100167.30;212019;1325;139467;-59
2021/11/16 09:45:10;;;;;;;55.70;31.50;;;;;;;8.38;68.05;100164.99;211853;1329;139761;-59
2021/11/16 09:50:17;;;;;;;55.30;30.30;;;;;;;8.37;67.83;100152.82;212151;1322;140084;-59
2021/11/16 09:55:22;;;;;;;54.10;29.00;;;;;;;8.35;67.92;100153.23;212113;1328;138874;-58
2021/11/16 10:00:28;;;;;;;127.40;70.00;;;;;;;8.35;67.98;100155.89;211791;1325;139218;-59
2021/11/16 10:05:40;;;;;;;54.00;30.90;;;;;;;8.39;68.02;100161.44;212481;1325;140188;-57
2021/11/16 10:10:51;;;;;;;58.40;30.60;;;;;;;8.33;67.71;100162.67;211770;1329;139453;-59
2021/11/16 10:15:59;;;;;;;58.80;30.50;;;;;;;8.27;67.77;100161.26;212010;1327;139805;-57
2021/11/16 10:21:04;;;;;;;48.80;27.30;;;;;;;8.28;67.89;100153.65;212047;1332;140009;-57
2021/11/16 10:26:14;;;;;;;55.80;30.50;;;;;;;8.33;67.83;100145.91;212310;1326;140163;-59
2021/11/16 10:31:28;;;;;;;54.70;29.90;;;;;;;8.35;67.78;100139.98;212335;1329;139921;-59
2021/11/16 10:36:31;;;;;;;54.10;29.70;;;;;;;8.37;67.84;100138.34;211837;1325;139051;-59
2021/11/16 10:41:36;;;;;;;54.90;31.60;;;;;;;8.37;67.75;100133.91;211523;1328;139801;-58
2021/11/16 10:46:45;;;;;;;52.50;30.10;;;;;;;8.35;67.71;100127.80;211766;1331;139371;-59
2021/11/16 10:51:51;;;;;;;54.40;29.40;;;;;;;8.29;67.62;100127.27;211549;1330;140204;-58
2021/11/16 10:57:01;;;;;;;59.40;31.60;;;;;;;8.25;67.67;100121.23;212339;1329;139733;-58
2021/11/16 11:02:17;;;;;;;72.50;38.60;;;;;;;8.23;67.84;100115.99;214004;1320;140022;-58
2021/11/16 11:07:22;;;;;;;;;;;;;;;8.34;68.36;100114.91;213223;1322;140120;-58
2021/11/16 11:12:33;;;;;;;54.10;31.30;;;;;;;8.42;67.93;100112.16;214350;1321;146301;-56
2021/11/16 11:17:36;;;;;;;52.30;30.10;;;;;;;8.44;67.93;100109.80;213563;1324;139450;-57
2021/11/16 11:22:43;;;;;;;51.70;29.30;;;;;;;8.50;67.75;100111.52;213747;1325;138790;-58
2021/11/16 11:28:09;;;;;;;;;;;;;;;8.54;67.85;100103.41;213527;1322;139646;-57
2021/11/16 11:33:13;;;;;;;85.90;44.60;;;;;;;8.58;67.86;100097.09;214481;1322;125333;-60
2021/11/16 11:38:17;;;;;;;85.20;42.50;;;;;;;8.62;67.98;100092.00;212757;1324;140004;-57
2021/11/16 11:43:24;;;;;;;81.60;40.40;;;;;;;8.59;67.60;100085.55;213798;1324;139647;-59
2021/11/16 11:48:27;;;;;;;90.20;43.40;;;;;;;8.49;67.34;100081.15;214212;1322;139484;-60
2021/11/16 11:53:33;;;;;;;84.30;41.40;;;;;;;8.39;67.54;100073.21;213927;1322;139530;-57
2021/11/16 11:58:39;;;;;;;85.20;42.40;;;;;;;8.38;67.64;100068.98;213109;1324;141623;-58
2021/11/16 12:03:45;;;;;;;87.60;43.20;;;;;;;8.43;67.95;100062.46;212125;1323;140874;-58
2021/11/16 12:08:50;;;;;;;;;;;;;;;8.44;67.83;100056.75;213241;1325;139167;-58
2021/11/16 12:13:55;;;;;;;92.90;42.40;;;;;;;8.42;67.96;100044.45;213408;1319;125076;-58
2021/11/16 12:19:07;;;;;;;84.40;42.40;;;;;;;8.37;67.88;100041.96;213049;1326;138785;-57
2021/11/16 12:24:13;;;;;;;88.10;40.10;;;;;;;8.34;67.79;100039.42;213424;1328;141889;-58
2021/11/16 12:29:19;;;;;;;89.40;41.80;;;;;;;8.27;67.88;100035.23;213509;1324;139317;-57
2021/11/16 12:34:37;;;;;;;92.50;40.60;;;;;;;8.23;67.65;100032.55;212733;1324;140498;-56
2021/11/16 12:40:00;;;;;;;68.80;35.50;;;;;;;8.18;67.83;100029.04;213724;1322;140134;-58
2021/11/16 12:45:08;;;;;;;80.80;36.40;;;;;;;8.17;67.93;100024.11;213382;1322;140405;-58
2021/11/16 12:50:15;;;;;;;75.60;37.10;;;;;;;8.24;68.18;100018.20;212035;1331;141653;-56
2021/11/16 12:55:26;;;;;;;75.00;37.80;;;;;;;8.27;68.07;100000.05;213918;1324;139538;-56
2021/11/16 13:00:39;;;;;;;76.40;34.80;;;;;;;8.24;67.95;99995.02;213701;1322;139852;-58
2021/11/16 13:05:45;;;;;;;69.60;35.70;;;;;;;8.17;67.69;99996.57;212977;1325;139207;-56
2021/11/16 13:10:51;;;;;;;77.50;35.70;;;;;;;8.08;67.95;99983.45;214001;1324;139013;-60
2021/11/16 13:16:04;;;;;;;67.90;33.10;;;;;;;8.06;67.92;99985.98;212349;1325;138797;-58
2021/11/16 13:21:07;;;;;;;70.40;34.40;;;;;;;8.02;67.84;99980.65;212284;1323;138886;-60
2021/11/16 13:26:30;;;;;;;67.10;33.80;;;;;;;8.00;67.96;99974.73;214353;1322;140303;-58
2021/11/16 13:31:45;;;;;;;66.20;34.20;;;;;;;8.03;67.97;99972.48;212978;1324;140122;-58
2021/11/16 13:36:54;;;;;;;72.40;36.40;;;;;;;8.09;68.10;99968.20;214106;1324;139499;-59
2021/11/16 13:42:06;;;;;;;70.10;35.30;;;;;;;8.08;67.89;99968.59;214253;1322;139125;-56
2021/11/16 13:47:20;;;;;;;68.40;34.00;;;;;;;8.05;67.99;99965.16;214348;1321;142005;-57
2021/11/16 13:52:28;;;;;;;186.80;119.80;;;;;;;8.02;68.00;99964.02;213046;1328;140653;-57
2021/11/16 13:57:34;;;;;;;72.40;34.40;;;;;;;8.09;68.15;99959.89;213993;1323;140562;-57
2021/11/16 14:02:56;;;;;;;58.60;30.60;;;;;;;8.06;67.86;99955.23;213708;1321;141384;-54
2021/11/16 14:08:00;;;;;;;58.80;29.70;;;;;;;7.99;67.69;99952.30;213068;1322;139335;-57
2021/11/16 14:13:16;;;;;;;84.00;43.50;;;;;;;7.93;67.62;99950.23;212719;1325;139191;-57
2021/11/16 14:18:20;;;;;;;63.70;31.90;;;;;;;7.95;68.13;99947.69;212729;1325;139935;-57
2021/11/16 14:23:26;;;;;;;64.70;31.50;;;;;;;7.98;67.96;99943.35;212320;1327;140293;-58
2021/11/16 14:28:31;;;;;;;66.00;31.60;;;;;;;7.94;67.88;99941.00;212456;1324;139985;-55
2021/11/16 14:33:56;;;;;;;65.40;32.60;;;;;;;7.92;67.72;99939.16;211787;1324;139852;-57
2021/11/16 14:39:06;;;;;;;75.70;36.10;;;;;;;7.81;67.59;99929.66;212320;1321;140174;-56
2021/11/16 14:44:13;;;;;;;66.10;34.40;;;;;;;7.73;67.62;99928.17;212764;1322;140407;-58
2021/11/16 14:54:52;;;;;;;58.50;30.70;;;;;;;7.56;67.65;99937.42;212299;1327;140104;-56
2021/11/16 15:00:07;;;;;;;71.10;34.60;;;;;;;7.45;67.78;99935.34;211465;1331;140400;-57
2021/11/16 15:05:13;;;;;;;65.80;34.40;;;;;;;7.44;67.73;99930.45;212089;1328;140134;-57
2021/11/16 15:10:21;;;;;;;;;;;;;;;7.47;68.12;99926.27;212118;1323;140070;-59
2021/11/16 15:15:30;;;;;;;65.60;33.50;;;;;;;7.55;68.46;99926.86;211840;1326;126101;-58
2021/11/16 15:21:14;;;;;;;62.20;32.70;;;;;;;7.51;67.85;99921.88;212033;1328;139604;-56
2021/11/16 15:26:20;;;;;;;82.90;43.70;;;;;;;8.20;70.32;99910.67;212335;1323;139784;-58
2021/11/16 15:31:23;;;;;;;69.20;36.20;;;;;;;8.35;68.24;99903.77;212141;1328;139269;-57
2021/11/16 15:36:28;;;;;;;74.50;36.20;;;;;;;8.18;67.43;99906.52;211735;1330;140803;-58
2021/11/16 15:52:20;;;;;;;68.10;35.00;;;;;;;7.78;67.36;99895.66;211886;1328;140302;-57
2021/11/16 15:57:32;;;;;;;68.50;33.70;;;;;;;7.61;67.28;99897.00;211627;1328;142502;-58
2021/11/16 16:02:35;;;;;;;271.70;167.60;;;;;;;7.43;67.33;99893.38;212275;1325;140478;-57
2021/11/16 16:07:38;;;;;;;74.20;35.00;;;;;;;7.40;67.71;99891.22;211615;1327;140254;-56
2021/11/16 16:12:46;;;;;;;74.60;37.70;;;;;;;7.40;67.84;99888.90;211557;1333;140321;-56
2021/11/16 16:17:49;;;;;;;72.80;36.50;;;;;;;7.32;67.59;99889.52;211499;1329;139787;-57
2021/11/16 16:22:52;;;;;;;74.80;36.60;;;;;;;7.21;67.77;99887.11;211725;1331;140802;-54
2021/11/16 16:27:55;;;;;;;74.70;35.90;;;;;;;7.13;67.54;99875.90;212160;1329;139140;-57
2021/11/16 16:32:59;;;;;;;83.80;38.10;;;;;;;7.10;68.06;99863.48;211103;1331;142013;-57
2021/11/16 16:38:03;;;;;;;76.80;36.30;;;;;;;7.10;67.92;99863.64;211897;1328;139884;-54
2021/11/16 16:43:09;;;;;;;70.40;35.40;;;;;;;6.97;67.71;99864.81;212509;1324;138745;-58
2021/11/16 16:48:12;;;;;;;73.30;35.50;;;;;;;6.83;67.69;99859.09;211940;1330;141779;-56
2021/11/16 16:53:16;;;;;;;75.00;36.40;;;;;;;6.79;68.01;99852.37;211803;1324;140555;-57
2021/11/16 16:58:19;;;;;;;79.30;38.80;;;;;;;6.81;68.25;99861.63;211733;1330;139987;-57
2021/11/16 17:03:22;;;;;;;76.80;38.70;;;;;;;6.81;68.13;99855.48;212295;1325;139452;-56
2021/11/16 17:08:25;;;;;;;99.40;55.00;;;;;;;6.81;68.45;99842.95;212349;1325;139028;-55
2021/11/16 17:13:31;;;;;;;74.70;37.90;;;;;;;6.89;68.59;99839.88;211813;1325;139506;-57
2021/11/16 17:18:37;;;;;;;73.30;35.50;;;;;;;6.83;68.07;99828.77;212343;1325;139994;-58
2021/11/16 17:23:42;;;;;;;78.30;36.30;;;;;;;6.77;68.06;99825.80;211962;1328;138885;-57
2021/11/16 17:28:45;;;;;;;87.00;38.50;;;;;;;6.68;68.10;99832.48;212006;1327;139614;-58
2021/11/16 17:33:48;;;;;;;78.40;38.70;;;;;;;6.58;68.18;99830.14;212064;1323;140035;-56
2021/11/16 17:38:51;;;;;;;68.90;35.80;;;;;;;6.57;68.40;99824.55;211809;1332;140857;-56
2021/11/16 17:43:55;;;;;;;66.40;35.00;;;;;;;6.57;68.56;99815.20;211702;1326;139655;-56
2021/11/16 17:48:58;;;;;;;72.70;37.00;;;;;;;6.61;68.72;99812.05;212197;1326;138787;-56
2021/11/16 17:54:04;;;;;;;73.00;36.90;;;;;;;6.61;68.68;99819.99;212057;1328;139042;-55
2021/11/16 17:59:07;;;;;;;71.40;36.00;;;;;;;6.57;68.39;99811.66;211947;1331;139963;-56
2021/11/16 18:04:13;;;;;;;239.50;149.50;;;;;;;6.57;68.80;99808.85;212240;1326;139738;-56
2021/11/16 18:09:18;;;;;;;80.40;41.80;;;;;;;6.68;69.10;99807.23;212330;1330;140339;-54
2021/11/16 18:14:21;;;;;;;77.10;40.70;;;;;;;6.71;68.87;99799.39;211957;1330;139222;-56
2021/11/16 18:19:24;;;;;;;81.40;41.30;;;;;;;6.66;68.74;99795.66;212009;1325;139106;-56
2021/11/16 18:24:27;;;;;;;75.70;38.20;;;;;;;6.60;68.73;99787.92;212156;1330;139749;-54
2021/11/16 18:29:32;;;;;;;76.40;39.30;;;;;;;6.61;68.77;99787.36;211804;1332;139931;-55
2021/11/16 18:34:35;;;;;;;84.90;43.90;;;;;;;6.67;69.07;99792.83;211585;1331;141255;-56
2021/11/16 18:39:43;;;;;;;101.10;49.90;;;;;;;6.63;68.93;99799.64;212119;1325;139632;-57
2021/11/16 18:49:59;;;;;;;97.50;49.50;;;;;;;6.56;68.74;99794.77;212037;1329;141819;-58
2021/11/16 18:55:04;;;;;;;100.80;49.60;;;;;;;6.46;68.57;99789.27;212044;1331;140190;-56
2021/11/16 19:00:09;;;;;;;543.30;380.40;;;;;;;6.40;69.06;99788.60;212164;1328;139543;-56
2021/11/16 19:05:12;;;;;;;100.50;49.30;;;;;;;6.61;69.76;99781.92;212293;1324;139423;-60
2021/11/16 19:10:15;;;;;;;94.60;44.80;;;;;;;6.69;69.27;99769.66;212301;1325;140144;-59
2021/11/16 19:15:18;;;;;;;100.40;47.20;;;;;;;6.64;68.80;99765.23;212309;1322;208203;-59
2021/11/16 19:20:21;;;;;;;100.70;47.80;;;;;;;6.60;68.97;99766.96;211929;1328;140616;-58
2021/11/16 19:25:27;;;;;;;96.70;46.10;;;;;;;6.59;68.84;99766.83;212547;1328;139719;-59
2021/11/16 19:30:31;;;;;;;89.20;44.60;;;;;;;6.58;68.91;99765.42;211974;1331;139450;-57
2021/11/16 19:35:44;;;;;;;87.90;42.10;;;;;;;6.52;68.76;99756.66;212322;1325;138772;-57
2021/11/16 19:40:47;;;;;;;86.50;42.70;;;;;;;6.45;69.04;99756.38;211740;1329;139068;-58
2021/11/16 19:45:51;;;;;;;91.30;43.80;;;;;;;6.43;68.81;99754.52;212092;1330;139984;-59
2021/11/16 19:50:54;;;;;;;107.60;49.40;;;;;;;6.35;69.23;99751.77;211635;1328;138938;-58
2021/11/16 19:55:58;;;;;;;106.10;51.50;;;;;;;6.39;69.26;99747.41;211794;1325;139684;-58
2021/11/16 20:01:01;;;;;;;102.70;48.00;;;;;;;6.37;69.03;99743.20;212138;1329;140377;-59
2021/11/16 20:06:04;;;;;;;120.20;52.10;;;;;;;6.38;69.28;99749.20;212118;1327;139785;-59
2021/11/16 20:11:07;;;;;;;124.60;57.10;;;;;;;6.38;69.68;99756.06;211629;1325;140840;-57
2021/11/16 20:16:15;;;;;;;122.30;55.90;;;;;;;6.39;69.70;99763.08;212499;1329;139903;-59
2021/11/16 20:21:18;;;;;;;128.40;57.10;;;;;;;6.31;69.35;99765.29;211906;1325;139377;-59
2021/11/16 20:26:23;;;;;;;125.80;51.40;;;;;;;6.26;69.57;99766.00;211993;1325;140363;-58
2021/11/16 20:31:40;;;;;;;104.40;47.30;;;;;;;6.25;69.34;99763.73;212323;1328;140776;-59
2021/11/16 20:36:47;;;;;;;106.70;45.80;;;;;;;6.26;69.51;99757.70;212211;1325;140559;-58
2021/11/16 20:42:19;;;;;;;88.20;41.00;;;;;;;6.27;69.77;99753.44;211542;1332;139355;-59
2021/11/16 21:03:08;;;;;;;89.60;39.90;;;;;;;6.21;69.82;99728.80;211760;1325;139798;-58
2021/11/16 21:08:11;;;;;;;89.60;40.80;;;;;;;6.15;69.60;99724.07;212074;1329;141876;-59
2021/11/16 21:13:14;;;;;;;99.30;42.90;;;;;;;6.10;69.51;99721.23;212390;1328;140202;-58
2021/11/16 21:18:17;;;;;;;103.20;37.00;;;;;;;6.04;69.87;99726.36;211780;1325;139190;-60
2021/11/16 21:23:20;;;;;;;71.30;35.20;;;;;;;5.96;69.55;99723.81;212042;1331;139597;-59
2021/11/16 21:28:23;;;;;;;76.50;36.20;;;;;;;5.91;70.04;99723.04;211856;1327;139208;-58
2021/11/16 21:33:27;;;;;;;85.30;36.00;;;;;;;5.94;70.33;99720.85;212270;1324;139243;-57
2021/11/16 21:38:30;;;;;;;76.40;36.60;;;;;;;5.99;70.26;99718.77;212027;1325;139474;-56
2021/11/16 21:43:33;;;;;;;185.90;89.10;;;;;;;5.99;70.26;99718.05;211852;1325;138911;-59
2021/11/16 21:48:38;;;;;;;84.90;39.10;;;;;;;6.10;70.49;99717.36;212082;1324;140779;-59
2021/11/16 21:53:41;;;;;;;81.60;38.40;;;;;;;6.14;70.44;99715.11;212036;1325;139217;-58
2021/11/16 21:58:44;;;;;;;83.00;38.00;;;;;;;6.16;70.48;99715.02;211886;1329;139323;-57
2021/11/16 22:03:48;;;;;;;79.90;37.40;;;;;;;6.24;70.64;99710.20;211885;1331;140884;-58
2021/11/16 22:09:02;;;;;;;84.20;36.70;;;;;;;6.28;70.27;99697.70;211732;1330;138850;-57
2021/11/16 22:14:06;;;;;;;78.10;36.30;;;;;;;6.20;70.15;99702.07;212654;1324;139127;-59
2021/11/16 22:19:09;;;;;;;76.80;35.40;;;;;;;6.13;70.19;99703.52;212224;1325;138962;-60
2021/11/16 22:24:12;;;;;;;58.50;30.60;;;;;;;6.09;70.12;99698.38;212464;1325;140158;-57
2021/11/16 22:34:24;;;;;;;77.50;35.30;;;;;;;6.13;70.35;99697.34;212418;1325;139235;-59
2021/11/16 22:39:27;;;;;;;93.10;34.90;;;;;;;6.13;70.04;99701.94;211706;1325;139351;-61
2021/11/16 22:44:30;;;;;;;70.60;33.20;;;;;;;6.08;70.00;99695.06;212039;1325;139866;-59
2021/11/16 22:49:33;;;;;;;78.10;34.50;;;;;;;5.98;70.01;99691.34;211721;1330;139099;-60
2021/11/16 22:54:36;;;;;;;71.70;34.20;;;;;;;5.88;69.95;99688.27;212054;1324;139438;-60
